sensor_id;sensor_type;location;lat;lon;timestamp;noise_LAeq;noise_LA_min;noise_LA_max;noise_LA01;noise_LA95
64077;Laerm;51039;49.696;10.808;2022-09-21T00:00:51;30.14;28.93;31.14;;
64077;Laerm;51039;49.696;10.808;2022-09-21T00:03:16;30.10;28.69;31.20;;
64077;Laerm;51039;49.696;10.808;2022-09-21T00:05:42;30.06;28.88;31.25;;
64077;Laerm;51039;49.696;10.808;2022-09-21T00:08:09;30.00;28.89;31.11;;
64077;Laerm;51039;49.696;10.808;2022-09-21T00:10:36;29.93;28.67;31.04;;
64077;Laerm;51039;49.696;10.808;2022-09-21T00:13:02;29.91;28.36;31.12;;
64077;Laerm;51039;49.696;10.808;2022-09-21T00:15:29;29.86;28.59;31.00;;
64077;Laerm;51039;49.696;10.808;2022-09-21T00:17:56;29.84;28.50;30.99;;
64077;Laerm;51039;49.696;10.808;2022-09-21T00:20:23;29.79;28.34;30.77;;
64077;Laerm;51039;49.696;10.808;2022-09-21T00:22:49;29.79;28.69;31.03;;
64077;Laerm;51039;49.696;10.808;2022-09-21T00:25:16;29.76;28.45;30.99;;
64077;Laerm;51039;49.696;10.808;2022-09-21T00:27:41;29.73;28.53;30.75;;
64077;Laerm;51039;49.696;10.808;2022-09-21T00:30:07;29.69;28.55;30.90;;
64077;Laerm;51039;49.696;10.808;2022-09-21T00:32:35;29.65;28.46;30.80;;
64077;Laerm;51039;49.696;10.808;2022-09-21T00:35:02;29.62;28.41;30.79;;
64077;Laerm;51039;49.696;10.808;2022-09-21T00:37:28;29.59;28.37;30.76;;
64077;Laerm;51039;49.696;10.808;2022-09-21T00:39:54;29.57;28.38;30.67;;
64077;Laerm;51039;49.696;10.808;2022-09-21T00:42:22;29.54;28.50;30.64;;
64077;Laerm;51039;49.696;10.808;2022-09-21T00:44:48;29.51;28.14;30.79;;
64077;Laerm;51039;49.696;10.808;2022-09-21T00:47:16;29.47;28.41;30.52;;
64077;Laerm;51039;49.696;10.808;2022-09-21T00:49:45;29.45;28.04;30.58;;
64077;Laerm;51039;49.696;10.808;2022-09-21T00:52:14;29.43;28.05;30.49;;
64077;Laerm;51039;49.696;10.808;2022-09-21T00:54:45;29.40;27.98;30.79;;
64077;Laerm;51039;49.696;10.808;2022-09-21T00:57:14;29.30;28.02;30.46;;
64077;Laerm;51039;49.696;10.808;2022-09-21T00:59:42;29.21;27.97;30.37;;
64077;Laerm;51039;49.696;10.808;2022-09-21T01:02:09;29.19;27.97;30.31;;
64077;Laerm;51039;49.696;10.808;2022-09-21T01:04:34;29.17;27.92;30.31;;
64077;Laerm;51039;49.696;10.808;2022-09-21T01:07:05;29.14;27.79;30.33;;
64077;Laerm;51039;49.696;10.808;2022-09-21T01:09:35;29.13;27.93;30.24;;
64077;Laerm;51039;49.696;10.808;2022-09-21T01:21:14;29.07;27.95;30.11;;
64077;Laerm;51039;49.696;10.808;2022-09-21T01:26:36;29.02;27.68;30.38;;
64077;Laerm;51039;49.696;10.808;2022-09-21T01:29:27;29.00;27.78;30.14;;
64077;Laerm;51039;49.696;10.808;2022-09-21T01:32:00;28.97;27.78;30.13;;
64077;Laerm;51039;49.696;10.808;2022-09-21T01:34:32;28.96;27.77;30.23;;
64077;Laerm;51039;49.696;10.808;2022-09-21T01:37:05;28.91;27.62;30.02;;
64077;Laerm;51039;49.696;10.808;2022-09-21T01:39:33;28.90;27.62;29.92;;
64077;Laerm;51039;49.696;10.808;2022-09-21T01:42:01;28.86;27.67;30.14;;
64077;Laerm;51039;49.696;10.808;2022-09-21T01:44:30;28.85;27.55;29.93;;
64077;Laerm;51039;49.696;10.808;2022-09-21T01:47:02;28.84;27.64;29.97;;
64077;Laerm;51039;49.696;10.808;2022-09-21T01:49:37;28.83;27.38;29.99;;
64077;Laerm;51039;49.696;10.808;2022-09-21T01:52:30;28.79;27.56;29.94;;
64077;Laerm;51039;49.696;10.808;2022-09-21T01:55:03;28.78;27.46;29.95;;
64077;Laerm;51039;49.696;10.808;2022-09-21T01:57:42;28.76;27.55;29.92;;
64077;Laerm;51039;49.696;10.808;2022-09-21T02:00:11;28.75;27.56;29.84;;
64077;Laerm;51039;49.696;10.808;2022-09-21T02:02:48;28.70;27.51;29.77;;
64077;Laerm;51039;49.696;10.808;2022-09-21T02:05:16;28.68;27.29;29.81;;
64077;Laerm;51039;49.696;10.808;2022-09-21T02:07:44;28.66;27.52;30.09;;
64077;Laerm;51039;49.696;10.808;2022-09-21T02:10:17;28.62;27.29;29.74;;
64077;Laerm;51039;49.696;10.808;2022-09-21T02:12:45;28.60;27.45;29.67;;
64077;Laerm;51039;49.696;10.808;2022-09-21T02:15:11;28.57;27.13;29.79;;
64077;Laerm;51039;49.696;10.808;2022-09-21T02:17:55;28.56;27.34;29.78;;
64077;Laerm;51039;49.696;10.808;2022-09-21T02:20:27;28.52;27.31;29.65;;
64077;Laerm;51039;49.696;10.808;2022-09-21T02:26:01;28.47;27.20;29.70;;
64077;Laerm;51039;49.696;10.808;2022-09-21T02:28:45;28.46;27.09;29.53;;
64077;Laerm;51039;49.696;10.808;2022-09-21T02:31:29;28.44;27.29;29.58;;
64077;Laerm;51039;49.696;10.808;2022-09-21T02:34:03;28.42;27.22;29.51;;
64077;Laerm;51039;49.696;10.808;2022-09-21T02:39:08;28.40;27.07;29.57;;
64077;Laerm;51039;49.696;10.808;2022-09-21T02:47:02;28.36;27.09;29.46;;
64077;Laerm;51039;49.696;10.808;2022-09-21T02:49:40;28.34;27.01;29.53;;
64077;Laerm;51039;49.696;10.808;2022-09-21T02:52:12;28.33;26.97;29.51;;
64077;Laerm;51039;49.696;10.808;2022-09-21T02:54:41;28.32;26.95;29.49;;
64077;Laerm;51039;49.696;10.808;2022-09-21T02:57:09;28.27;27.11;29.35;;
64077;Laerm;51039;49.696;10.808;2022-09-21T02:59:35;28.26;26.94;29.37;;
64077;Laerm;51039;49.696;10.808;2022-09-21T03:02:01;28.25;27.09;29.36;;
64077;Laerm;51039;49.696;10.808;2022-09-21T03:04:26;28.23;27.09;29.41;;
64077;Laerm;51039;49.696;10.808;2022-09-21T03:06:52;28.23;27.02;29.34;;
64077;Laerm;51039;49.696;10.808;2022-09-21T03:09:17;28.21;26.96;29.34;;
64077;Laerm;51039;49.696;10.808;2022-09-21T03:11:43;28.18;27.02;29.30;;
64077;Laerm;51039;49.696;10.808;2022-09-21T03:14:08;28.15;27.00;29.40;;
64077;Laerm;51039;49.696;10.808;2022-09-21T03:16:35;28.14;26.82;29.35;;
64077;Laerm;51039;49.696;10.808;2022-09-21T03:19:00;28.12;26.97;29.19;;
64077;Laerm;51039;49.696;10.808;2022-09-21T03:21:25;28.12;26.86;29.43;;
64077;Laerm;51039;49.696;10.808;2022-09-21T03:23:51;28.10;26.92;29.29;;
64077;Laerm;51039;49.696;10.808;2022-09-21T03:26:16;28.10;26.83;29.30;;
64077;Laerm;51039;49.696;10.808;2022-09-21T03:28:45;28.11;27.05;29.24;;
64077;Laerm;51039;49.696;10.808;2022-09-21T03:31:10;28.10;26.78;29.41;;
64077;Laerm;51039;49.696;10.808;2022-09-21T03:33:36;28.08;26.99;29.22;;
64077;Laerm;51039;49.696;10.808;2022-09-21T03:36:01;28.07;26.87;29.39;;
64077;Laerm;51039;49.696;10.808;2022-09-21T03:38:26;28.05;26.92;29.29;;
64077;Laerm;51039;49.696;10.808;2022-09-21T03:40:52;28.03;26.88;29.21;;
64077;Laerm;51039;49.696;10.808;2022-09-21T03:43:18;28.02;26.83;29.19;;
64077;Laerm;51039;49.696;10.808;2022-09-21T03:45:44;28.01;26.71;29.17;;
64077;Laerm;51039;49.696;10.808;2022-09-21T03:48:10;28.02;26.50;29.21;;
64077;Laerm;51039;49.696;10.808;2022-09-21T03:50:37;28.02;26.85;29.20;;
64077;Laerm;51039;49.696;10.808;2022-09-21T03:53:03;27.99;26.65;29.12;;
64077;Laerm;51039;49.696;10.808;2022-09-21T03:55:28;27.99;26.79;29.15;;
64077;Laerm;51039;49.696;10.808;2022-09-21T03:57:54;27.94;26.56;29.23;;
64077;Laerm;51039;49.696;10.808;2022-09-21T04:00:20;27.92;26.82;29.37;;
64077;Laerm;51039;49.696;10.808;2022-09-21T04:02:45;27.89;26.71;29.14;;
64077;Laerm;51039;49.696;10.808;2022-09-21T04:05:13;27.89;26.78;29.26;;
64077;Laerm;51039;49.696;10.808;2022-09-21T04:07:40;27.88;26.55;29.06;;
64077;Laerm;51039;49.696;10.808;2022-09-21T04:10:08;27.86;26.56;29.07;;
64077;Laerm;51039;49.696;10.808;2022-09-21T04:12:37;27.85;26.48;28.85;;
64077;Laerm;51039;49.696;10.808;2022-09-21T04:15:02;27.83;26.72;28.94;;
64077;Laerm;51039;49.696;10.808;2022-09-21T04:17:31;27.82;26.59;28.92;;
64077;Laerm;51039;49.696;10.808;2022-09-21T04:19:57;27.77;26.61;28.91;;
64077;Laerm;51039;49.696;10.808;2022-09-21T04:22:22;27.74;26.54;28.78;;
64077;Laerm;51039;49.696;10.808;2022-09-21T04:24:49;27.73;26.63;28.99;;
64077;Laerm;51039;49.696;10.808;2022-09-21T04:27:14;27.72;26.45;28.81;;
64077;Laerm;51039;49.696;10.808;2022-09-21T04:29:39;27.72;26.50;28.86;;
64077;Laerm;51039;49.696;10.808;2022-09-21T04:32:05;27.71;26.63;28.91;;
64077;Laerm;51039;49.696;10.808;2022-09-21T04:34:31;27.69;26.19;28.79;;
64077;Laerm;51039;49.696;10.808;2022-09-21T04:36:57;27.67;26.42;28.88;;
64077;Laerm;51039;49.696;10.808;2022-09-21T04:39:23;27.66;26.50;28.75;;
64077;Laerm;51039;49.696;10.808;2022-09-21T04:41:49;27.67;26.41;28.88;;
64077;Laerm;51039;49.696;10.808;2022-09-21T04:44:14;27.66;26.45;28.73;;
64077;Laerm;51039;49.696;10.808;2022-09-21T04:46:39;27.63;26.55;28.70;;
64077;Laerm;51039;49.696;10.808;2022-09-21T04:49:06;27.64;26.56;28.94;;
64077;Laerm;51039;49.696;10.808;2022-09-21T04:51:32;27.63;26.13;28.89;;
64077;Laerm;51039;49.696;10.808;2022-09-21T04:53:58;27.62;26.46;28.68;;
64077;Laerm;51039;49.696;10.808;2022-09-21T04:56:23;27.62;26.33;28.77;;
64077;Laerm;51039;49.696;10.808;2022-09-21T04:58:49;27.60;26.32;28.69;;
64077;Laerm;51039;49.696;10.808;2022-09-21T05:01:14;27.60;26.26;28.85;;
64077;Laerm;51039;49.696;10.808;2022-09-21T05:03:39;27.59;26.44;28.66;;
64077;Laerm;51039;49.696;10.808;2022-09-21T05:06:05;27.58;26.23;28.70;;
64077;Laerm;51039;49.696;10.808;2022-09-21T05:08:30;27.57;26.48;28.66;;
64077;Laerm;51039;49.696;10.808;2022-09-21T05:11:16;27.55;26.37;28.69;;
64077;Laerm;51039;49.696;10.808;2022-09-21T05:13:43;27.54;26.12;28.79;;
64077;Laerm;51039;49.696;10.808;2022-09-21T05:16:08;27.53;26.36;28.76;;
64077;Laerm;51039;49.696;10.808;2022-09-21T05:18:34;27.52;26.22;28.57;;
64077;Laerm;51039;49.696;10.808;2022-09-21T05:21:01;27.50;26.35;28.74;;
64077;Laerm;51039;49.696;10.808;2022-09-21T05:23:27;27.51;26.24;28.62;;
64077;Laerm;51039;49.696;10.808;2022-09-21T05:25:54;27.49;26.29;28.66;;
64077;Laerm;51039;49.696;10.808;2022-09-21T05:28:19;27.48;26.27;28.64;;
64077;Laerm;51039;49.696;10.808;2022-09-21T05:30:52;27.47;26.15;28.60;;
64077;Laerm;51039;49.696;10.808;2022-09-21T05:33:20;27.46;26.21;28.53;;
64077;Laerm;51039;49.696;10.808;2022-09-21T05:38:28;27.42;26.22;28.83;;
64077;Laerm;51039;49.696;10.808;2022-09-21T05:40:54;27.43;25.93;28.51;;
64077;Laerm;51039;49.696;10.808;2022-09-21T05:43:19;27.42;26.20;28.46;;
64077;Laerm;51039;49.696;10.808;2022-09-21T05:45:50;27.38;26.16;28.60;;
64077;Laerm;51039;49.696;10.808;2022-09-21T05:48:26;27.38;26.12;28.62;;
64077;Laerm;51039;49.696;10.808;2022-09-21T05:51:03;27.37;26.11;28.45;;
64077;Laerm;51039;49.696;10.808;2022-09-21T05:56:23;27.36;25.88;28.64;;
64077;Laerm;51039;49.696;10.808;2022-09-21T05:58:57;27.34;26.18;28.61;;
64077;Laerm;51039;49.696;10.808;2022-09-21T06:01:42;27.31;26.01;28.52;;
64077;Laerm;51039;49.696;10.808;2022-09-21T06:04:11;27.22;25.98;28.24;;
64077;Laerm;51039;49.696;10.808;2022-09-21T06:06:37;27.20;25.88;28.36;;
64077;Laerm;51039;49.696;10.808;2022-09-21T06:09:03;27.20;25.93;28.34;;
64077;Laerm;51039;49.696;10.808;2022-09-21T06:11:28;27.19;25.86;28.38;;
64077;Laerm;51039;49.696;10.808;2022-09-21T06:13:53;27.19;25.74;28.30;;
64077;Laerm;51039;49.696;10.808;2022-09-21T06:16:19;27.17;26.05;28.46;;
64077;Laerm;51039;49.696;10.808;2022-09-21T06:18:44;27.06;25.77;28.14;;
64077;Laerm;51039;49.696;10.808;2022-09-21T06:21:09;27.03;25.75;28.18;;
64077;Laerm;51039;49.696;10.808;2022-09-21T06:23:35;27.01;25.45;28.33;;
64077;Laerm;51039;49.696;10.808;2022-09-21T06:26:00;27.00;25.69;28.28;;
64077;Laerm;51039;49.696;10.808;2022-09-21T06:28:25;26.98;25.83;34.04;;
64077;Laerm;51039;49.696;10.808;2022-09-21T06:30:53;26.96;25.58;28.23;;
64077;Laerm;51039;49.696;10.808;2022-09-21T06:33:19;26.96;25.62;28.09;;
64077;Laerm;51039;49.696;10.808;2022-09-21T06:35:53;26.95;25.65;28.11;;
64077;Laerm;51039;49.696;10.808;2022-09-21T06:38:18;26.93;25.72;28.28;;
64077;Laerm;51039;49.696;10.808;2022-09-21T06:40:44;26.91;25.64;27.90;;
64077;Laerm;51039;49.696;10.808;2022-09-21T06:43:09;26.90;25.40;28.16;;
64077;Laerm;51039;49.696;10.808;2022-09-21T06:45:35;26.89;25.65;28.30;;
64077;Laerm;51039;49.696;10.808;2022-09-21T06:48:00;26.87;25.67;28.04;;
64077;Laerm;51039;49.696;10.808;2022-09-21T06:50:25;26.86;25.72;28.03;;
64077;Laerm;51039;49.696;10.808;2022-09-21T06:52:51;26.86;25.75;28.05;;
64077;Laerm;51039;49.696;10.808;2022-09-21T06:55:16;26.84;25.55;28.00;;
64077;Laerm;51039;49.696;10.808;2022-09-21T06:57:41;26.84;25.63;28.03;;
64077;Laerm;51039;49.696;10.808;2022-09-21T07:00:09;26.82;25.55;27.92;;
64077;Laerm;51039;49.696;10.808;2022-09-21T07:02:35;26.82;25.63;27.95;;
64077;Laerm;51039;49.696;10.808;2022-09-21T07:05:00;26.80;25.69;27.92;;
64077;Laerm;51039;49.696;10.808;2022-09-21T07:07:27;26.78;25.14;27.85;;
64077;Laerm;51039;49.696;10.808;2022-09-21T07:09:54;26.77;25.59;27.86;;
64077;Laerm;51039;49.696;10.808;2022-09-21T07:12:19;26.75;25.37;27.85;;
64077;Laerm;51039;49.696;10.808;2022-09-21T07:14:45;26.75;25.59;28.01;;
64077;Laerm;51039;49.696;10.808;2022-09-21T07:17:10;26.74;25.51;28.01;;
64077;Laerm;51039;49.696;10.808;2022-09-21T07:19:37;26.73;25.47;27.87;;
64077;Laerm;51039;49.696;10.808;2022-09-21T07:22:03;26.72;25.52;27.86;;
64077;Laerm;51039;49.696;10.808;2022-09-21T07:24:28;26.72;25.44;27.87;;
64077;Laerm;51039;49.696;10.808;2022-09-21T07:26:54;26.69;25.59;27.90;;
64077;Laerm;51039;49.696;10.808;2022-09-21T07:29:19;26.69;25.43;27.82;;
64077;Laerm;51039;49.696;10.808;2022-09-21T07:31:44;26.68;25.41;27.86;;
64077;Laerm;51039;49.696;10.808;2022-09-21T07:34:10;26.65;25.32;28.10;;
64077;Laerm;51039;49.696;10.808;2022-09-21T07:36:35;26.63;25.30;27.77;;
64077;Laerm;51039;49.696;10.808;2022-09-21T07:39:00;26.62;25.44;27.98;;
64077;Laerm;51039;49.696;10.808;2022-09-21T07:41:27;26.59;25.28;28.01;;
64077;Laerm;51039;49.696;10.808;2022-09-21T07:43:52;26.59;25.29;27.77;;
64077;Laerm;51039;49.696;10.808;2022-09-21T07:46:17;26.58;25.37;27.86;;
64077;Laerm;51039;49.696;10.808;2022-09-21T07:48:44;26.58;25.50;27.66;;
64077;Laerm;51039;49.696;10.808;2022-09-21T07:51:12;26.56;25.25;27.80;;
64077;Laerm;51039;49.696;10.808;2022-09-21T07:53:40;26.54;25.25;27.67;;
64077;Laerm;51039;49.696;10.808;2022-09-21T07:56:08;26.54;25.10;27.77;;
64077;Laerm;51039;49.696;10.808;2022-09-21T07:58:35;26.55;25.19;27.63;;
64077;Laerm;51039;49.696;10.808;2022-09-21T08:01:19;26.54;25.10;27.66;;
64077;Laerm;51039;49.696;10.808;2022-09-21T08:03:48;26.53;25.37;27.60;;
64077;Laerm;51039;49.696;10.808;2022-09-21T08:06:13;26.53;25.28;27.74;;
64077;Laerm;51039;49.696;10.808;2022-09-21T08:08:38;26.54;25.39;27.85;;
64077;Laerm;51039;49.696;10.808;2022-09-21T08:11:06;26.55;25.31;27.76;;
64077;Laerm;51039;49.696;10.808;2022-09-21T08:13:32;26.56;25.20;27.63;;
64077;Laerm;51039;49.696;10.808;2022-09-21T08:15:59;26.56;25.28;27.75;;
64077;Laerm;51039;49.696;10.808;2022-09-21T08:18:25;26.59;25.12;27.85;;
64077;Laerm;51039;49.696;10.808;2022-09-21T08:20:58;26.61;25.29;27.76;;
64077;Laerm;51039;49.696;10.808;2022-09-21T08:23:25;26.67;25.34;27.84;;
64077;Laerm;51039;49.696;10.808;2022-09-21T08:26:03;26.79;25.64;27.95;;
64077;Laerm;51039;49.696;10.808;2022-09-21T08:28:33;26.89;25.65;28.01;;
64077;Laerm;51039;49.696;10.808;2022-09-21T08:31:00;27.04;25.84;28.61;;
64077;Laerm;51039;49.696;10.808;2022-09-21T08:33:26;27.24;26.17;28.34;;
64077;Laerm;51039;49.696;10.808;2022-09-21T08:35:53;27.40;26.31;28.61;;
64077;Laerm;51039;49.696;10.808;2022-09-21T08:38:18;27.71;26.27;29.09;;
64077;Laerm;51039;49.696;10.808;2022-09-21T08:40:44;28.20;26.77;29.36;;
64077;Laerm;51039;49.696;10.808;2022-09-21T08:43:12;28.84;27.33;30.10;;
64077;Laerm;51039;49.696;10.808;2022-09-21T08:45:43;29.66;28.39;31.02;;
64077;Laerm;51039;49.696;10.808;2022-09-21T08:48:14;30.79;29.11;32.24;;
64077;Laerm;51039;49.696;10.808;2022-09-21T08:50:45;32.01;30.26;33.67;;
64077;Laerm;51039;49.696;10.808;2022-09-21T08:53:18;33.06;31.62;34.23;;
64077;Laerm;51039;49.696;10.808;2022-09-21T08:55:45;34.24;32.30;35.83;;
64077;Laerm;51039;49.696;10.808;2022-09-21T08:58:27;35.05;33.78;36.16;;
64077;Laerm;51039;49.696;10.808;2022-09-21T09:03:55;35.60;34.34;37.09;;
64077;Laerm;51039;49.696;10.808;2022-09-21T09:06:33;36.41;34.71;38.06;;
64077;Laerm;51039;49.696;10.808;2022-09-21T09:19:45;37.47;35.95;38.80;;
64077;Laerm;51039;49.696;10.808;2022-09-21T09:22:16;37.85;36.55;39.11;;
64077;Laerm;51039;49.696;10.808;2022-09-21T09:24:49;38.22;36.84;39.43;;
64077;Laerm;51039;49.696;10.808;2022-09-21T09:27:23;38.24;36.89;39.39;;
64077;Laerm;51039;49.696;10.808;2022-09-21T09:29:58;38.46;37.06;40.03;;
64077;Laerm;51039;49.696;10.808;2022-09-21T09:35:24;38.53;37.11;39.78;;
64077;Laerm;51039;49.696;10.808;2022-09-21T09:37:53;38.66;37.39;39.80;;
64077;Laerm;51039;49.696;10.808;2022-09-21T09:43:15;39.00;37.39;40.47;;
64077;Laerm;51039;49.696;10.808;2022-09-21T09:48:57;39.13;37.78;40.38;;
64077;Laerm;51039;49.696;10.808;2022-09-21T09:51:27;39.15;37.68;40.31;;
64077;Laerm;51039;49.696;10.808;2022-09-21T09:53:56;39.09;37.89;40.57;;
64077;Laerm;51039;49.696;10.808;2022-09-21T09:56:23;38.97;37.69;40.13;;
64077;Laerm;51039;49.696;10.808;2022-09-21T09:58:53;38.95;37.53;40.16;;
64077;Laerm;51039;49.696;10.808;2022-09-21T10:01:39;38.97;37.68;40.28;;
64077;Laerm;51039;49.696;10.808;2022-09-21T10:04:10;39.00;37.70;40.29;;
64077;Laerm;51039;49.696;10.808;2022-09-21T10:06:36;39.00;37.55;40.25;;
64077;Laerm;51039;49.696;10.808;2022-09-21T10:12:03;39.09;37.61;40.33;;
64077;Laerm;51039;49.696;10.808;2022-09-21T10:14:47;39.02;37.71;40.56;;
64077;Laerm;51039;49.696;10.808;2022-09-21T10:17:16;38.57;37.08;39.86;;
64077;Laerm;51039;49.696;10.808;2022-09-21T10:19:42;38.18;36.82;39.52;;
64077;Laerm;51039;49.696;10.808;2022-09-21T10:22:15;38.18;36.55;39.43;;
64077;Laerm;51039;49.696;10.808;2022-09-21T10:24:47;38.01;36.60;39.35;;
64077;Laerm;51039;49.696;10.808;2022-09-21T10:27:15;38.00;36.42;39.20;;
64077;Laerm;51039;49.696;10.808;2022-09-21T10:29:46;37.86;36.56;39.13;;
64077;Laerm;51039;49.696;10.808;2022-09-21T10:34:38;37.65;36.24;39.14;;
64077;Laerm;51039;49.696;10.808;2022-09-21T10:37:27;37.66;36.31;38.84;;
64077;Laerm;51039;49.696;10.808;2022-09-21T10:39:53;37.64;36.05;38.84;;
64077;Laerm;51039;49.696;10.808;2022-09-21T10:42:19;37.51;35.90;38.59;;
64077;Laerm;51039;49.696;10.808;2022-09-21T10:44:47;37.42;36.14;38.71;;
64077;Laerm;51039;49.696;10.808;2022-09-21T10:47:35;37.42;35.81;38.74;;
64077;Laerm;51039;49.696;10.808;2022-09-21T10:50:05;37.68;36.40;41.74;;
64077;Laerm;51039;49.696;10.808;2022-09-21T10:52:37;37.93;36.52;39.52;;
64077;Laerm;51039;49.696;10.808;2022-09-21T10:55:04;38.19;36.83;39.49;;
64077;Laerm;51039;49.696;10.808;2022-09-21T10:57:32;38.43;36.96;39.65;;
64077;Laerm;51039;49.696;10.808;2022-09-21T11:00:11;38.64;37.29;39.84;;
64077;Laerm;51039;49.696;10.808;2022-09-21T11:02:54;38.78;37.58;40.16;;
64077;Laerm;51039;49.696;10.808;2022-09-21T11:05:24;38.83;37.47;40.06;;
64077;Laerm;51039;49.696;10.808;2022-09-21T11:13:32;38.97;37.46;40.23;;
64077;Laerm;51039;49.696;10.808;2022-09-21T11:16:17;39.00;37.40;40.15;;
64077;Laerm;51039;49.696;10.808;2022-09-21T11:18:48;39.00;37.37;40.39;;
64077;Laerm;51039;49.696;10.808;2022-09-21T11:21:49;39.00;37.53;40.35;;
64077;Laerm;51039;49.696;10.808;2022-09-21T11:24:25;39.02;37.71;40.10;;
64077;Laerm;51039;49.696;10.808;2022-09-21T11:26:57;39.02;37.73;40.40;;
64077;Laerm;51039;49.696;10.808;2022-09-21T11:29:30;38.95;37.52;40.11;;
64077;Laerm;51039;49.696;10.808;2022-09-21T11:37:47;38.59;37.19;39.97;;
64077;Laerm;51039;49.696;10.808;2022-09-21T11:45:58;38.68;37.06;39.93;;
64077;Laerm;51039;49.696;10.808;2022-09-21T11:48:43;38.78;37.39;40.19;;
64077;Laerm;51039;49.696;10.808;2022-09-21T11:54:02;38.69;37.20;40.02;;
64077;Laerm;51039;49.696;10.808;2022-09-21T11:56:54;38.60;37.21;39.87;;
64077;Laerm;51039;49.696;10.808;2022-09-21T12:04:56;38.18;36.74;39.40;;
64077;Laerm;51039;49.696;10.808;2022-09-21T12:07:28;38.08;36.69;39.41;;
64077;Laerm;51039;49.696;10.808;2022-09-21T12:10:05;38.06;36.74;39.29;;
64077;Laerm;51039;49.696;10.808;2022-09-21T12:15:24;37.72;36.08;39.03;;
64077;Laerm;51039;49.696;10.808;2022-09-21T12:18:38;37.71;36.48;39.31;;
64077;Laerm;51039;49.696;10.808;2022-09-21T12:21:26;37.71;36.25;38.90;;
64077;Laerm;51039;49.696;10.808;2022-09-21T12:23:55;37.66;36.37;39.02;;
64077;Laerm;51039;49.696;10.808;2022-09-21T12:26:31;37.73;36.31;39.21;;
64077;Laerm;51039;49.696;10.808;2022-09-21T12:32:12;37.64;36.18;39.09;;
64077;Laerm;51039;49.696;10.808;2022-09-21T12:34:43;37.60;36.28;38.75;;
64077;Laerm;51039;49.696;10.808;2022-09-21T12:37:28;37.65;36.33;39.02;;
64077;Laerm;51039;49.696;10.808;2022-09-21T12:40:06;37.78;36.24;40.95;;
64077;Laerm;51039;49.696;10.808;2022-09-21T12:42:48;37.86;36.55;39.13;;
64077;Laerm;51039;49.696;10.808;2022-09-21T12:45:24;37.83;36.50;39.13;;
64077;Laerm;51039;49.696;10.808;2022-09-21T12:53:45;37.71;36.24;39.00;;
64077;Laerm;51039;49.696;10.808;2022-09-21T13:05:13;37.76;36.34;38.99;;
64077;Laerm;51039;49.696;10.808;2022-09-21T13:07:58;37.81;36.41;39.10;;
64077;Laerm;51039;49.696;10.808;2022-09-21T13:12:59;37.86;36.57;39.11;;
64077;Laerm;51039;49.696;10.808;2022-09-21T13:15:29;37.82;36.46;39.19;;
64077;Laerm;51039;49.696;10.808;2022-09-21T13:18:03;37.85;36.53;39.14;;
64077;Laerm;51039;49.696;10.808;2022-09-21T13:20:39;37.79;36.47;39.10;;
64077;Laerm;51039;49.696;10.808;2022-09-21T13:23:14;37.74;36.21;39.06;;
64077;Laerm;51039;49.696;10.808;2022-09-21T13:25:41;37.71;36.26;39.10;;
64077;Laerm;51039;49.696;10.808;2022-09-21T13:49:12;37.63;35.92;38.88;;
64077;Laerm;51039;49.696;10.808;2022-09-21T13:54:37;37.68;36.26;39.05;;
64077;Laerm;51039;49.696;10.808;2022-09-21T13:57:22;37.62;36.00;38.76;;
64077;Laerm;51039;49.696;10.808;2022-09-21T14:05:38;37.69;36.31;38.88;;
64077;Laerm;51039;49.696;10.808;2022-09-21T14:10:48;37.54;36.08;38.79;;
64077;Laerm;51039;49.696;10.808;2022-09-21T14:13:27;37.51;36.23;38.97;;
64077;Laerm;51039;49.696;10.808;2022-09-21T14:15:54;37.53;36.15;38.80;;
64077;Laerm;51039;49.696;10.808;2022-09-21T14:18:34;37.56;36.22;38.99;;
64077;Laerm;51039;49.696;10.808;2022-09-21T14:26:48;37.41;35.91;38.83;;
64077;Laerm;51039;49.696;10.808;2022-09-21T14:32:10;37.38;35.95;38.53;;
64077;Laerm;51039;49.696;10.808;2022-09-21T14:34:38;37.37;36.09;38.58;;
64077;Laerm;51039;49.696;10.808;2022-09-21T14:37:35;37.37;35.84;38.71;;
64077;Laerm;51039;49.696;10.808;2022-09-21T14:40:02;37.29;35.92;38.55;;
64077;Laerm;51039;49.696;10.808;2022-09-21T14:42:28;37.34;35.92;38.93;;
64077;Laerm;51039;49.696;10.808;2022-09-21T14:45:01;37.35;35.98;38.59;;
64077;Laerm;51039;49.696;10.808;2022-09-21T14:50:42;37.34;36.09;38.80;;
64077;Laerm;51039;49.696;10.808;2022-09-21T14:59:19;37.41;35.91;38.71;;
64077;Laerm;51039;49.696;10.808;2022-09-21T15:01:58;37.45;36.20;38.63;;
64077;Laerm;51039;49.696;10.808;2022-09-21T15:04:40;37.42;35.78;38.68;;
64077;Laerm;51039;49.696;10.808;2022-09-21T15:10:31;37.48;36.29;38.91;;
64077;Laerm;51039;49.696;10.808;2022-09-21T15:13:35;37.44;36.05;38.70;;
64077;Laerm;51039;49.696;10.808;2022-09-21T15:18:50;37.46;36.19;38.63;;
64077;Laerm;51039;49.696;10.808;2022-09-21T15:21:26;37.44;36.15;38.74;;
64077;Laerm;51039;49.696;10.808;2022-09-21T15:23:54;37.47;36.06;38.70;;
64077;Laerm;51039;49.696;10.808;2022-09-21T15:26:25;37.45;35.82;38.71;;
64077;Laerm;51039;49.696;10.808;2022-09-21T15:28:55;37.41;36.01;38.76;;
64077;Laerm;51039;49.696;10.808;2022-09-21T15:31:21;37.42;36.14;38.77;;
64077;Laerm;51039;49.696;10.808;2022-09-21T15:33:50;37.42;36.11;38.67;;
64077;Laerm;51039;49.696;10.808;2022-09-21T15:36:24;37.40;36.05;38.48;;
64077;Laerm;51039;49.696;10.808;2022-09-21T15:38:51;37.42;35.85;38.61;;
64077;Laerm;51039;49.696;10.808;2022-09-21T15:44:11;37.43;36.09;38.69;;
64077;Laerm;51039;49.696;10.808;2022-09-21T15:46:39;37.38;36.10;38.94;;
64077;Laerm;51039;49.696;10.808;2022-09-21T15:49:10;37.35;36.05;38.79;;
64077;Laerm;51039;49.696;10.808;2022-09-21T15:51:37;37.29;35.77;38.58;;
64077;Laerm;51039;49.696;10.808;2022-09-21T15:54:17;37.27;35.96;38.58;;
64077;Laerm;51039;49.696;10.808;2022-09-21T15:56:45;37.22;35.89;38.36;;
64077;Laerm;51039;49.696;10.808;2022-09-21T15:59:15;37.21;35.84;38.39;;
64077;Laerm;51039;49.696;10.808;2022-09-21T16:01:52;37.20;35.87;38.50;;
64077;Laerm;51039;49.696;10.808;2022-09-21T16:04:23;37.25;35.88;38.43;;
64077;Laerm;51039;49.696;10.808;2022-09-21T16:09:48;37.22;35.77;38.59;;
64077;Laerm;51039;49.696;10.808;2022-09-21T16:12:39;37.19;35.79;38.74;;
64077;Laerm;51039;49.696;10.808;2022-09-21T16:15:26;37.14;35.69;38.31;;
64077;Laerm;51039;49.696;10.808;2022-09-21T16:18:01;37.11;35.46;38.29;;
64077;Laerm;51039;49.696;10.808;2022-09-21T16:23:12;37.09;35.75;38.53;;
64077;Laerm;51039;49.696;10.808;2022-09-21T16:25:38;37.08;35.73;38.65;;
64077;Laerm;51039;49.696;10.808;2022-09-21T16:30:47;37.15;35.81;38.46;;
64077;Laerm;51039;49.696;10.808;2022-09-21T16:36:03;37.29;35.88;38.45;;
64077;Laerm;51039;49.696;10.808;2022-09-21T16:38:30;37.35;36.07;38.65;;
64077;Laerm;51039;49.696;10.808;2022-09-21T16:40:57;37.48;36.02;38.82;;
64077;Laerm;51039;49.696;10.808;2022-09-21T16:43:23;37.68;36.45;38.93;;